Time;durP1;ratioP1;P1;durP2;ratioP2;P2;SDS_P1;SDS_P2;PMS_P1;PMS_P2;Temp;Humidity;BMP_temperature;BMP_pressure;BME280_temperature;BME280_humidity;BME280_pressure;Samples;Min_cycle;Max_cycle;Signal;HPM_P1;HPM_P2
2021/04/08 18:39:23;;;;;;;9.85;5.90;;;6.50;89.90;;;4.22;56.15;101724.88;3548944;39;101927;-40
2021/04/08 18:41:50;;;;;;;9.65;5.57;;;6.10;92.40;;;4.16;57.29;101725.50;3527632;39;104395;-41
2021/04/08 18:44:17;;;;;;;8.38;5.25;;;6.00;94.70;;;4.07;57.70;101726.34;3535662;39;103079;-41
2021/04/08 18:46:44;;;;;;;9.77;5.25;;;5.90;95.50;;;3.96;57.53;101722.84;3536992;39;102357;-41
2021/04/08 18:49:12;;;;;;;12.15;6.57;;;5.80;96.10;;;3.73;58.36;101701.59;3519052;39;102316;-41
2021/04/08 18:51:39;;;;;;;9.38;5.25;;;5.70;98.20;;;3.76;59.72;101722.06;3598075;22;104316;-39
2021/04/08 18:54:07;;;;;;;9.85;5.30;;;5.60;99.90;;;3.67;60.40;101722.91;3516758;40;104107;-40
2021/04/08 18:56:35;;;;;;;9.93;5.30;;;5.50;99.90;;;3.58;61.26;101724.63;3516934;40;102205;-40
2021/04/08 18:59:05;;;;;;;10.48;5.60;;;5.40;99.90;;;3.47;61.40;101720.25;3525148;40;102352;-40
2021/04/08 19:04:11;;;;;;;9.27;5.63;;;5.20;99.90;;;3.25;63.09;101719.56;3525179;40;104080;-40
2021/04/08 19:06:38;;;;;;;7.97;4.82;;;5.00;99.90;;;3.14;63.27;101714.28;3524921;40;102466;-40
2021/04/08 19:09:07;;;;;;;11.07;5.93;;;5.00;99.90;;;3.06;63.73;101711.44;3524338;40;102392;-40
2021/04/08 19:11:35;;;;;;;11.85;5.32;;;4.90;99.90;;;3.00;63.45;101713.72;3525368;40;102482;-40
2021/04/08 19:14:03;;;;;;;10.57;5.47;;;4.80;99.90;;;2.95;64.44;101709.75;3524656;40;103078;-40
2021/04/08 19:16:30;;;;;;;11.00;5.72;;;4.80;99.90;;;2.93;64.16;101712.59;3525184;40;102311;-40
2021/04/08 19:18:57;;;;;;;12.83;6.00;;;4.70;99.90;;;2.83;64.26;101715.28;3525073;40;103042;-40
2021/04/08 19:21:24;;;;;;;9.82;5.85;;;4.60;99.90;;;2.78;63.98;101714.81;3509456;40;103138;-39
2021/04/08 19:23:51;;;;;;;9.25;5.97;;;4.60;99.90;;;2.73;63.20;101715.25;3524911;40;104011;-40
2021/04/08 19:26:18;;;;;;;10.68;5.65;;;4.50;99.90;;;2.71;63.33;101714.53;3525574;40;102141;-41
2021/04/08 19:28:45;;;;;;;10.33;5.53;;;4.50;99.90;;;2.68;64.11;101719.34;3517051;40;103378;-40
2021/04/08 19:31:14;;;;;;;8.52;5.43;;;4.50;99.90;;;2.68;64.86;101714.81;3516575;40;102786;-40
2021/04/08 19:33:42;;;;;;;10.48;5.68;;;4.50;99.90;;;2.61;65.91;101719.03;3525328;40;102209;-40
2021/04/08 19:36:09;;;;;;;10.93;5.32;;;4.40;99.90;;;2.52;66.89;101718.03;3517069;39;104872;-39
2021/04/08 19:38:37;;;;;;;12.05;5.47;;;4.40;99.90;;;2.42;67.40;101720.72;3526188;40;103275;-40
2021/04/08 19:41:04;;;;;;;11.43;5.53;;;4.30;99.90;;;2.33;67.14;101701.81;3525925;40;103181;-39
2021/04/08 19:43:32;;;;;;;7.88;5.18;;;4.20;99.90;;;2.25;67.32;101713.25;3524713;40;103071;-39
2021/04/08 19:45:59;;;;;;;9.80;6.05;;;4.10;99.90;;;2.19;67.45;101708.44;3516945;40;102271;-39
2021/04/08 19:48:26;;;;;;;10.35;5.22;;;4.00;99.90;;;2.15;68.03;101702.44;3524523;40;102421;-39
2021/04/08 19:50:53;;;;;;;9.02;5.32;;;4.00;99.90;;;2.09;68.05;101703.84;3509962;40;102419;-40
2021/04/08 19:53:21;;;;;;;8.93;5.18;;;3.90;99.90;;;2.05;68.98;101697.00;3518859;40;103888;-38
2021/04/08 19:55:51;;;;;;;9.77;5.63;;;3.90;99.90;;;2.00;68.98;101693.88;3510319;40;103412;-39
2021/04/08 19:58:18;;;;;;;9.85;5.72;;;3.80;99.90;;;1.99;68.65;101697.56;3518573;40;102327;-39
2021/04/08 20:00:46;;;;;;;9.50;5.68;;;3.80;99.90;;;1.96;68.90;101695.16;3510894;40;102372;-40
2021/04/08 20:03:14;;;;;;;11.70;6.07;;;3.80;99.90;;;1.91;69.00;101692.00;3510315;40;104006;-39
2021/04/08 20:05:42;;;;;;;;;;;3.70;99.90;;;1.86;69.35;101698.66;3518845;40;102473;-40
2021/04/08 20:08:09;;;;;;;8.85;4.70;;;3.70;99.90;;;1.81;69.81;101695.47;3518342;40;102261;-39
2021/04/08 20:10:36;;;;;;;12.57;5.53;;;3.70;99.90;;;1.75;69.96;101696.03;3518218;40;102413;-39
2021/04/08 20:13:03;;;;;;;10.32;5.85;;;3.60;99.90;;;1.68;70.57;101684.94;3510284;40;103165;-40
2021/04/08 20:15:30;;;;;;;9.38;5.95;;;3.50;99.90;;;1.61;70.82;101688.31;3501691;40;103355;-39
2021/04/08 20:17:58;;;;;;;10.50;5.45;;;3.40;99.90;;;1.51;71.81;101678.31;3502002;40;104085;-39
2021/04/08 20:20:25;;;;;;;12.40;6.33;;;3.30;99.90;;;1.44;71.97;101687.91;3510225;40;103274;-40
2021/04/08 20:22:53;;;;;;;9.38;5.50;;;3.30;99.90;;;1.35;72.38;101678.78;3501887;40;103297;-39
2021/04/08 20:25:22;;;;;;;10.15;5.95;;;3.20;99.90;;;1.30;72.48;101675.63;3518348;40;102336;-40
2021/04/08 20:27:50;;;;;;;10.80;5.65;;;3.20;99.90;;;1.20;72.71;101675.56;3510503;40;103995;-39
2021/04/08 20:30:19;;;;;;;11.70;6.18;;;3.10;99.90;;;1.12;73.24;101683.44;3518269;40;103187;-39
2021/04/08 20:32:46;;;;;;;12.18;6.32;;;3.00;99.90;;;1.03;73.38;101674.31;3519364;40;102741;-39
2021/04/08 20:35:14;;;;;;;13.32;6.00;;;2.90;99.90;;;0.95;73.57;101672.25;3509894;40;103313;-39
2021/04/08 20:37:42;;;;;;;10.55;5.80;;;2.80;99.90;;;0.91;73.79;101673.50;3518692;39;103147;-39
2021/04/08 20:40:11;;;;;;;10.32;5.50;;;2.80;99.90;;;0.87;73.87;101674.72;3518641;40;103408;-39
2021/04/08 20:42:39;;;;;;;10.30;6.28;;;2.70;99.90;;;0.84;74.42;101664.25;3519099;40;104162;-39
2021/04/08 20:45:08;;;;;;;11.53;6.47;;;2.70;99.90;;;0.79;74.56;101671.81;3502215;40;104265;-39
2021/04/08 20:47:35;;;;;;;12.55;6.25;;;2.60;99.90;;;0.73;74.79;101667.81;3518328;40;102172;-39
2021/04/08 20:50:05;;;;;;;11.17;6.30;;;2.60;99.90;;;0.69;74.13;101671.75;3501990;40;102514;-39
2021/04/08 20:52:45;;;;;;;12.68;6.65;;;2.50;99.90;;;0.66;74.39;101656.72;3526371;39;102420;-39
2021/04/08 20:55:12;;;;;;;9.63;5.95;;;2.50;99.90;;;0.60;74.72;101661.75;3509359;40;104556;-40
2021/04/08 20:57:43;;;;;;;11.48;5.78;;;2.50;99.90;;;0.51;74.63;101658.84;3518376;40;103222;-39
2021/04/08 21:00:12;;;;;;;12.77;6.75;;;2.40;99.90;;;0.47;74.62;101656.53;3518046;40;103276;-39
2021/04/08 21:02:39;;;;;;;12.45;6.63;;;2.30;99.90;;;0.44;74.91;101660.34;3517164;40;103042;-39
2021/04/08 21:05:09;;;;;;;11.57;6.30;;;2.30;99.90;;;0.38;74.65;101650.94;3501893;40;103396;-39
2021/04/08 21:07:36;;;;;;;11.52;7.10;;;2.30;99.90;;;0.35;75.45;101650.31;3519122;40;102280;-39
2021/04/08 21:10:09;;;;;;;12.63;6.50;;;2.20;99.90;;;0.32;75.87;101653.25;3509615;40;102400;-39
2021/04/08 21:12:37;;;;;;;11.32;6.63;;;2.20;99.90;;;0.28;75.39;101647.31;3510063;40;105580;-39
2021/04/08 21:15:07;;;;;;;12.30;6.35;;;2.20;99.90;;;0.25;75.74;101647.53;3510043;40;103343;-39
2021/04/08 21:17:34;;;;;;;13.02;7.22;;;2.10;99.90;;;0.22;76.00;101634.34;3518226;40;102584;-39
2021/04/08 21:20:03;;;;;;;12.90;7.13;;;2.10;99.90;;;0.20;76.10;101631.81;3517992;39;102587;-39
2021/04/08 21:22:31;;;;;;;13.43;6.85;;;2.10;99.90;;;0.20;76.22;101633.63;3510120;40;105178;-39
2021/04/08 21:24:58;;;;;;;13.80;6.63;;;2.10;99.90;;;0.18;76.10;101624.84;3509637;40;102606;-39
2021/04/08 21:27:25;;;;;;;12.50;6.80;;;2.10;99.90;;;0.21;75.74;101627.28;3501927;40;105784;-39
2021/04/08 21:29:52;;;;;;;13.98;6.72;;;2.10;99.90;;;0.20;75.29;101623.75;3502012;40;103323;-39
2021/04/08 21:32:19;;;;;;;13.23;6.30;;;2.10;99.90;;;0.19;75.44;101611.31;3518223;40;103209;-40
2021/04/08 21:34:46;;;;;;;9.68;6.43;;;2.10;99.90;;;0.20;75.31;101622.91;3518699;39;102340;-39
2021/04/08 21:37:13;;;;;;;12.27;6.53;;;2.10;99.90;;;0.21;75.48;101613.88;3519028;39;103155;-39
2021/04/08 21:39:40;;;;;;;12.67;6.60;;;2.10;99.90;;;0.20;75.63;101610.34;3518891;40;102107;-39
2021/04/08 21:42:09;;;;;;;12.05;6.50;;;2.10;99.90;;;0.19;76.05;101605.94;3509534;40;103378;-39
2021/04/08 21:44:36;;;;;;;9.98;6.07;;;2.10;99.90;;;0.18;75.79;101606.06;3518615;40;103390;-39
2021/04/08 21:47:04;;;;;;;10.68;5.90;;;2.10;99.90;;;0.18;75.92;101606.06;3493706;40;102296;-39
2021/04/08 21:49:32;;;;;;;13.77;6.20;;;2.10;99.90;;;0.17;76.39;101604.38;3501950;39;102435;-39
2021/04/08 21:51:59;;;;;;;14.65;6.90;;;2.10;99.90;;;0.12;76.07;101604.72;3517787;40;103318;-39
2021/04/08 21:54:26;;;;;;;11.07;5.80;;;2.00;99.90;;;0.11;75.78;101597.66;3501604;40;102436;-39
2021/04/08 21:56:53;;;;;;;11.90;6.30;;;2.00;99.90;;;0.05;76.02;101588.28;3510084;39;103093;-39
2021/04/08 21:59:21;;;;;;;13.13;6.83;;;2.00;99.90;;;0.08;76.79;101593.41;3517991;40;102492;-39
2021/04/08 22:01:48;;;;;;;10.77;5.47;;;2.00;99.90;;;0.06;76.08;101583.75;3517831;40;102579;-39
2021/04/08 22:04:14;;;;;;;12.35;6.40;;;2.00;99.90;;;-0.01;76.62;101586.94;3509130;40;102280;-39
2021/04/08 22:06:42;;;;;;;14.50;5.90;;;1.90;99.90;;;-0.04;76.56;101579.16;3501554;40;103135;-39
2021/04/08 22:09:09;;;;;;;10.57;5.80;;;1.90;99.90;;;-0.08;76.58;101580.38;3501202;40;104856;-39
2021/04/08 22:11:36;;;;;;;11.35;6.13;;;1.80;99.90;;;-0.12;76.56;101573.56;3509768;40;102541;-39
2021/04/08 22:14:06;;;;;;;10.50;6.03;;;1.80;99.90;;;-0.17;76.39;101573.94;3501177;40;103068;-39
2021/04/08 22:16:33;;;;;;;12.35;6.20;;;1.80;99.90;;;-0.22;77.07;101581.50;3501295;40;105995;-39
2021/04/08 22:19:00;;;;;;;10.52;5.38;;;1.70;99.90;;;-0.24;76.61;101566.50;3509607;39;102569;-39
2021/04/08 22:21:28;;;;;;;11.77;5.65;;;1.70;99.90;;;-0.27;76.86;101562.22;3493355;40;102286;-39
2021/04/08 22:24:01;;;;;;;11.80;6.07;;;1.70;99.90;;;-0.31;76.96;101564.31;3517621;40;103159;-38
2021/04/08 22:26:29;;;;;;;14.68;6.70;;;1.60;99.90;;;-0.35;77.15;101559.31;3517720;40;102708;-39
2021/04/08 22:28:57;;;;;;;14.07;6.30;;;1.60;99.90;;;-0.38;78.10;101555.06;3493560;40;103362;-40
2021/04/08 22:31:27;;;;;;;16.45;6.18;;;1.50;99.90;;;-0.42;78.17;101547.38;3501181;40;103459;-39
2021/04/08 22:33:54;;;;;;;16.38;7.07;;;1.50;99.90;;;-0.43;78.96;101543.81;3509109;40;103302;-39
2021/04/08 22:36:23;;;;;;;11.00;6.10;;;1.50;99.90;;;-0.46;78.77;101544.06;3501525;40;104123;-39
2021/04/08 22:38:54;;;;;;;9.85;6.00;;;1.40;99.90;;;-0.47;78.48;101543.22;3509212;40;103089;-39
2021/04/08 22:41:21;;;;;;;11.63;6.57;;;1.40;99.90;;;-0.51;79.02;101536.41;3517518;40;102379;-40
2021/04/08 22:43:49;;;;;;;13.03;7.00;;;1.40;99.90;;;-0.52;79.21;101526.66;3509227;40;102279;-39
2021/04/08 22:46:18;;;;;;;12.80;7.38;;;1.40;99.90;;;-0.48;79.09;101524.56;3509807;40;103078;-39
2021/04/08 22:48:48;;;;;;;13.70;7.05;;;1.40;99.90;;;-0.47;79.22;101526.28;3518594;40;103328;-39
2021/04/08 22:51:15;;;;;;;11.50;6.93;;;1.40;99.90;;;-0.45;78.86;101522.50;3517669;39;103199;-39
2021/04/08 22:53:43;;;;;;;12.82;7.28;;;1.50;99.90;;;-0.40;78.89;101519.44;3517438;40;102476;-39
2021/04/08 22:56:14;;;;;;;11.38;6.10;;;1.50;99.90;;;-0.38;78.11;101519.31;3509020;40;104061;-39
2021/04/08 22:58:44;;;;;;;11.75;6.55;;;1.50;99.90;;;-0.35;78.40;101511.91;3509216;40;102244;-39
2021/04/08 23:01:12;;;;;;;15.30;6.80;;;1.60;99.90;;;-0.28;77.20;101504.19;3501415;40;102281;-40
2021/04/08 23:03:40;;;;;;;13.20;6.05;;;1.60;99.90;;;-0.18;77.08;101507.84;3509080;40;102493;-38
2021/04/08 23:06:09;;;;;;;12.88;6.68;;;1.70;99.90;;;-0.11;76.19;101502.84;3509024;40;105082;-39
2021/04/08 23:08:37;;;;;;;11.25;6.05;;;1.80;99.90;;;-0.07;75.76;101504.28;3508718;39;102789;-39
2021/04/08 23:11:05;;;;;;;12.95;6.10;;;1.80;99.90;;;-0.04;76.00;101497.78;3501184;39;104025;-39
2021/04/08 23:13:34;;;;;;;12.07;6.43;;;1.80;99.90;;;0.01;75.04;101500.97;3508689;40;102494;-39
2021/04/08 23:16:03;;;;;;;11.65;6.55;;;1.90;99.90;;;0.03;75.43;101496.34;3508991;40;104010;-39
2021/04/08 23:18:31;;;;;;;12.27;6.03;;;1.90;99.90;;;0.06;75.80;101496.06;3509299;40;103281;-39
2021/04/08 23:20:59;;;;;;;10.70;6.28;;;1.90;99.90;;;0.10;76.19;101489.47;3509599;40;102275;-39
2021/04/08 23:23:26;;;;;;;11.93;6.32;;;2.00;99.90;;;0.18;75.31;101485.28;3516808;39;102511;-38
2021/04/08 23:25:53;;;;;;;11.87;5.60;;;2.00;99.90;;;0.20;75.42;101486.00;3502405;40;105584;-39
2021/04/08 23:28:20;;;;;;;9.37;5.83;;;2.00;99.90;;;0.26;74.95;101488.19;3518854;40;102129;-39
2021/04/08 23:30:48;;;;;;;10.73;5.33;;;2.10;99.90;;;0.29;75.61;101485.25;3518717;40;105799;-39
2021/04/08 23:33:16;;;;;;;16.20;6.05;;;2.10;99.90;;;0.31;75.26;101472.56;3502067;40;102457;-38
2021/04/08 23:35:43;;;;;;;13.82;6.00;;;2.20;99.90;;;0.38;75.25;101481.78;3502260;40;102257;-39
2021/04/08 23:38:10;;;;;;;14.03;7.03;;;2.20;99.90;;;0.43;75.08;101476.03;3502221;40;102377;-39
2021/04/08 23:40:38;;;;;;;10.52;5.57;;;2.30;99.90;;;0.46;75.00;101473.09;3502159;40;103095;-40
2021/04/08 23:43:05;;;;;;;11.80;6.03;;;2.30;99.90;;;0.52;75.69;101472.56;3502117;40;103379;-39
2021/04/08 23:45:32;;;;;;;12.67;6.10;;;2.30;99.90;;;0.57;75.11;101464.13;3502095;40;103892;-39
2021/04/08 23:48:00;;;;;;;12.93;7.00;;;2.40;99.90;;;0.61;75.53;101472.75;3502216;40;102310;-39
2021/04/08 23:50:28;;;;;;;14.80;6.87;;;2.40;99.90;;;0.65;75.07;101471.50;3502570;39;102265;-39
2021/04/08 23:52:55;;;;;;;;;;;2.50;99.90;;;0.71;74.79;101466.47;3502748;40;102532;-40
2021/04/08 23:55:26;;;;;;;12.98;6.05;;;2.50;99.90;;;0.73;74.80;101466.34;3501851;40;102270;-40
2021/04/08 23:57:55;;;;;;;14.10;6.25;;;2.60;99.90;;;0.76;74.56;101462.53;3501995;40;102437;-39
